createdAt,value
2018-08-30T00:01:27.780Z,15.50
2018-08-30T00:03:56.233Z,15.50
2018-08-30T00:06:24.545Z,15.40
2018-08-30T00:08:52.841Z,15.50
2018-08-30T00:11:21.233Z,15.50
2018-08-30T00:13:50.494Z,15.50
2018-08-30T00:16:19.672Z,15.40
2018-08-30T00:18:48.304Z,15.40
2018-08-30T00:21:16.758Z,15.40
2018-08-30T00:23:45.165Z,15.40
2018-08-30T00:26:13.846Z,15.40
2018-08-30T00:28:42.313Z,15.30
2018-08-30T00:31:10.965Z,15.30
2018-08-30T00:33:39.372Z,15.30
2018-08-30T00:36:07.645Z,15.20
2018-08-30T00:38:35.929Z,15.20
2018-08-30T00:41:05.555Z,15.20
2018-08-30T00:43:33.844Z,15.10
2018-08-30T00:46:02.121Z,15.20
2018-08-30T00:48:30.557Z,15.30
2018-08-30T00:50:58.845Z,15.30
2018-08-30T00:53:27.135Z,15.30
2018-08-30T00:55:55.433Z,15.30
2018-08-30T00:58:23.745Z,15.30
2018-08-30T01:00:52.040Z,15.30
2018-08-30T01:03:20.432Z,15.30
2018-08-30T01:05:48.733Z,15.30
2018-08-30T01:08:17.057Z,15.30
2018-08-30T01:10:45.426Z,15.30
2018-08-30T01:13:13.841Z,15.30
2018-08-30T01:15:42.133Z,15.20
2018-08-30T01:18:10.437Z,15.20
2018-08-30T01:20:38.756Z,15.20
2018-08-30T01:23:07.037Z,15.20
2018-08-30T01:25:35.400Z,15.10
2018-08-30T01:28:03.704Z,15.10
2018-08-30T01:30:32.008Z,15.00
2018-08-30T01:33:00.444Z,14.90
2018-08-30T01:35:28.757Z,14.90
2018-08-30T01:37:57.985Z,14.90
2018-08-30T01:40:26.559Z,14.90
2018-08-30T01:42:54.848Z,14.90
2018-08-30T01:45:23.164Z,14.80
2018-08-30T01:47:51.585Z,14.80
2018-08-30T01:50:19.913Z,14.80
2018-08-30T01:52:48.218Z,14.80
2018-08-30T01:55:16.948Z,14.80
2018-08-30T01:57:45.265Z,14.70
2018-08-30T02:00:13.539Z,14.80
2018-08-30T02:02:41.973Z,14.80
2018-08-30T02:05:10.263Z,14.90
2018-08-30T02:07:38.544Z,14.90
2018-08-30T02:10:06.891Z,14.80
2018-08-30T02:12:35.272Z,14.80
2018-08-30T02:15:04.564Z,14.80
2018-08-30T02:17:32.877Z,14.80
2018-08-30T02:20:01.237Z,14.70
2018-08-30T02:22:29.656Z,14.70
2018-08-30T02:24:57.968Z,14.60
2018-08-30T02:27:26.257Z,14.60
2018-08-30T02:29:54.529Z,14.60
2018-08-30T02:32:22.837Z,14.50
2018-08-30T02:34:51.855Z,14.40
2018-08-30T02:37:20.148Z,14.40
2018-08-30T02:39:49.004Z,14.40
2018-08-30T02:42:17.332Z,14.30
2018-08-30T02:44:46.653Z,14.30
2018-08-30T02:47:15.362Z,14.30
2018-08-30T02:49:43.716Z,14.20
2018-08-30T02:52:12.001Z,14.20
2018-08-30T02:54:40.405Z,14.20
2018-08-30T02:57:08.696Z,14.20
2018-08-30T02:59:36.969Z,14.10
2018-08-30T03:02:05.724Z,14.10
2018-08-30T03:04:33.993Z,14.10
2018-08-30T03:07:02.277Z,14.00
2018-08-30T03:09:30.576Z,14.00
2018-08-30T03:11:58.861Z,14.00
2018-08-30T03:14:27.141Z,14.00
2018-08-30T03:16:55.512Z,13.90
2018-08-30T03:19:23.817Z,13.90
2018-08-30T03:21:52.113Z,13.90
2018-08-30T03:24:20.516Z,13.90
2018-08-30T03:26:48.845Z,13.90
2018-08-30T03:29:17.144Z,13.80
2018-08-30T03:31:45.474Z,13.80
2018-08-30T03:34:13.781Z,13.80
2018-08-30T03:36:42.076Z,13.80
2018-08-30T03:39:10.420Z,13.80
2018-08-30T03:41:38.705Z,13.80
2018-08-30T03:44:06.980Z,13.80
2018-08-30T03:46:35.795Z,13.70
2018-08-30T03:49:04.209Z,13.70
2018-08-30T03:51:33.306Z,13.70
2018-08-30T03:54:01.906Z,13.60
2018-08-30T03:56:30.253Z,13.60
2018-08-30T03:58:58.629Z,13.60
2018-08-30T04:01:27.033Z,13.50
2018-08-30T04:03:55.309Z,13.50
2018-08-30T04:06:24.310Z,13.50
2018-08-30T04:08:52.700Z,13.40
2018-08-30T04:11:20.992Z,13.40
2018-08-30T04:13:49.305Z,13.40
2018-08-30T04:16:17.708Z,13.40
2018-08-30T04:18:46.069Z,13.30
2018-08-30T04:21:14.374Z,13.30
2018-08-30T04:23:43.078Z,13.30
2018-08-30T04:26:11.364Z,13.30
2018-08-30T04:28:39.632Z,13.30
2018-08-30T04:31:08.064Z,13.20
2018-08-30T04:33:36.367Z,13.20
2018-08-30T04:36:04.715Z,13.20
2018-08-30T04:38:33.689Z,13.20
2018-08-30T04:41:02.020Z,13.20
2018-08-30T04:43:30.628Z,13.10
2018-08-30T04:45:58.913Z,13.10
2018-08-30T04:48:27.197Z,13.10
2018-08-30T04:50:56.376Z,13.10
2018-08-30T04:53:24.892Z,13.10
2018-08-30T04:55:53.181Z,13.00
2018-08-30T04:58:21.498Z,13.10
2018-08-30T05:00:49.806Z,13.00
2018-08-30T05:03:18.093Z,13.00
2018-08-30T05:05:46.397Z,13.00
2018-08-30T05:08:14.777Z,13.00
2018-08-30T05:10:43.056Z,13.00
2018-08-30T05:13:11.358Z,13.00
2018-08-30T05:15:39.977Z,13.00
2018-08-30T05:18:08.280Z,13.00
2018-08-30T05:20:36.805Z,13.00
2018-08-30T05:23:05.285Z,13.00
2018-08-30T05:25:33.697Z,13.00
2018-08-30T05:28:02.040Z,13.00
2018-08-30T05:30:31.089Z,13.10
2018-08-30T05:32:59.441Z,13.10
2018-08-30T05:35:27.970Z,13.10
2018-08-30T05:37:56.936Z,13.10
2018-08-30T05:40:25.412Z,13.20
2018-08-30T05:42:53.812Z,13.20
2018-08-30T05:45:22.128Z,13.20
2018-08-30T05:47:52.571Z,13.30
2018-08-30T05:50:21.687Z,13.30
2018-08-30T05:52:50.071Z,13.30
2018-08-30T05:55:18.375Z,13.40
2018-08-30T05:57:47.427Z,13.40
2018-08-30T06:00:15.726Z,13.50
2018-08-30T06:02:44.890Z,13.60
2018-08-30T06:05:14.000Z,13.60
2018-08-30T06:07:42.275Z,13.70
2018-08-30T06:10:10.617Z,13.80
2018-08-30T06:12:38.921Z,13.90
2018-08-30T06:15:07.230Z,14.00
2018-08-30T06:17:35.609Z,14.20
2018-08-30T06:20:04.129Z,14.30
2018-08-30T06:22:32.501Z,14.40
2018-08-30T06:25:00.872Z,14.60
2018-08-30T06:27:29.181Z,14.70
2018-08-30T06:29:57.485Z,14.90
2018-08-30T06:32:25.777Z,15.30
2018-08-30T06:34:54.369Z,15.50
2018-08-30T06:37:22.728Z,15.70
2018-08-30T06:39:51.017Z,15.60
2018-08-30T06:42:19.692Z,15.40
2018-08-30T06:44:47.980Z,15.20
2018-08-30T06:47:16.294Z,15.30
2018-08-30T06:49:44.597Z,15.40
2018-08-30T06:52:13.518Z,15.50
2018-08-30T06:54:41.805Z,15.60
2018-08-30T06:57:11.175Z,15.80
2018-08-30T06:59:39.460Z,15.80
2018-08-30T07:02:07.761Z,15.90
2018-08-30T07:04:36.079Z,16.00
2018-08-30T07:07:05.022Z,16.10
2018-08-30T07:09:33.308Z,16.20
2018-08-30T07:12:01.928Z,16.30
2018-08-30T07:14:30.318Z,16.40
2018-08-30T07:16:58.624Z,16.40
2018-08-30T07:19:27.053Z,16.50
2018-08-30T07:21:55.357Z,16.70
2018-08-30T07:24:23.831Z,16.90
2018-08-30T07:26:52.671Z,16.90
2018-08-30T07:29:20.961Z,16.90
2018-08-30T07:31:49.262Z,16.90
2018-08-30T07:34:17.638Z,17.00
2018-08-30T07:36:45.892Z,17.10
2018-08-30T07:39:14.182Z,17.20
2018-08-30T07:41:42.713Z,17.40
2018-08-30T07:44:11.976Z,17.50
2018-08-30T07:46:40.280Z,17.60
2018-08-30T07:49:09.638Z,17.70
2018-08-30T07:51:37.968Z,17.90
2018-08-30T07:54:07.569Z,18.10
2018-08-30T07:56:35.969Z,18.10
2018-08-30T07:59:04.255Z,18.40
2018-08-30T08:01:32.676Z,18.60
2018-08-30T08:04:02.185Z,18.50
2018-08-30T08:06:30.532Z,18.30
2018-08-30T08:08:58.852Z,17.90
2018-08-30T08:11:27.204Z,17.60
2018-08-30T08:13:55.635Z,17.50
2018-08-30T08:16:23.928Z,17.30
2018-08-30T08:18:52.490Z,17.20
2018-08-30T08:21:20.974Z,17.10
2018-08-30T08:23:49.268Z,17.10
2018-08-30T08:26:19.072Z,17.10
2018-08-30T08:28:47.373Z,17.20
2018-08-30T08:31:15.732Z,17.10
2018-08-30T08:33:44.388Z,17.20
2018-08-30T08:36:12.693Z,17.30
2018-08-30T08:38:40.968Z,17.30
2018-08-30T08:41:09.273Z,17.40
2018-08-30T08:43:37.568Z,17.80
2018-08-30T08:46:05.982Z,18.00
2018-08-30T08:48:34.565Z,18.00
2018-08-30T08:51:02.956Z,18.20
2018-08-30T08:53:31.357Z,18.50
2018-08-30T08:55:59.823Z,18.70
2018-08-30T08:58:28.117Z,18.90
2018-08-30T09:00:56.407Z,19.00
2018-08-30T09:03:24.716Z,19.20
2018-08-30T09:05:53.008Z,19.30
2018-08-30T09:08:21.280Z,19.30
2018-08-30T09:10:50.169Z,19.10
2018-08-30T09:13:18.520Z,18.90
2018-08-30T09:15:46.936Z,18.70
2018-08-30T09:18:15.266Z,18.60
2018-08-30T09:20:43.561Z,18.60
2018-08-30T09:23:11.918Z,18.50
2018-08-30T09:25:40.397Z,19.10
2018-08-30T09:28:10.153Z,19.50
2018-08-30T09:30:38.440Z,19.80
2018-08-30T09:33:07.056Z,19.50
2018-08-30T09:35:35.413Z,20.00
2018-08-30T09:38:03.804Z,20.30
2018-08-30T09:40:32.487Z,20.30
2018-08-30T09:43:00.799Z,20.10
2018-08-30T09:45:29.129Z,20.20
2018-08-30T09:47:57.555Z,20.30
2018-08-30T09:50:25.845Z,19.80
2018-08-30T09:52:54.136Z,19.30
2018-08-30T09:55:22.812Z,19.10
2018-08-30T09:57:51.080Z,19.40
2018-08-30T10:00:25.132Z,19.70
2018-08-30T10:02:53.433Z,20.00
2018-08-30T10:05:21.749Z,20.30
2018-08-30T10:07:50.058Z,20.60
2018-08-30T10:10:18.348Z,20.80
2018-08-30T10:12:46.635Z,20.40
2018-08-30T10:15:15.381Z,20.00
2018-08-30T10:17:43.669Z,20.20
2018-08-30T10:20:11.983Z,20.40
2018-08-30T10:22:40.684Z,20.50
2018-08-30T10:25:08.983Z,20.40
2018-08-30T10:27:37.419Z,20.90
2018-08-30T10:30:06.167Z,20.80
2018-08-30T10:32:34.572Z,20.70
2018-08-30T10:35:03.309Z,21.00
2018-08-30T10:37:31.713Z,20.90
2018-08-30T10:40:00.028Z,21.00
2018-08-30T10:42:28.332Z,21.20
2018-08-30T10:44:57.149Z,21.50
2018-08-30T10:47:25.638Z,21.40
2018-08-30T10:49:53.932Z,21.50
2018-08-30T10:52:22.622Z,21.60
2018-08-30T10:54:50.986Z,21.80
2018-08-30T10:57:19.262Z,21.50
2018-08-30T10:59:47.777Z,21.90
2018-08-30T11:02:16.094Z,21.20
2018-08-30T11:04:44.383Z,21.00
2018-08-30T11:07:12.848Z,21.40
2018-08-30T11:09:41.118Z,21.60
2018-08-30T11:12:09.628Z,22.00
2018-08-30T11:14:37.929Z,22.10
2018-08-30T11:17:06.218Z,21.70
2018-08-30T11:19:34.548Z,21.60
2018-08-30T11:22:03.150Z,21.60
2018-08-30T11:24:31.554Z,22.00
2018-08-30T11:26:59.861Z,22.30
2018-08-30T11:29:28.468Z,22.50
2018-08-30T11:31:57.655Z,22.50
2018-08-30T11:34:26.024Z,22.50
2018-08-30T11:36:54.445Z,22.40
2018-08-30T11:39:22.756Z,22.50
2018-08-30T11:41:51.209Z,22.40
2018-08-30T11:44:20.296Z,22.40
2018-08-30T11:46:48.624Z,22.70
2018-08-30T11:49:16.900Z,22.60
2018-08-30T11:51:45.380Z,22.70
2018-08-30T11:54:13.736Z,22.70
2018-08-30T11:56:42.037Z,22.50
2018-08-30T11:59:10.736Z,22.60
2018-08-30T12:01:39.045Z,22.40
2018-08-30T12:04:08.102Z,22.00
2018-08-30T12:06:36.420Z,22.50
2018-08-30T12:09:06.505Z,22.80
2018-08-30T12:11:35.940Z,22.30
2018-08-30T12:14:04.313Z,22.10
2018-08-30T12:16:32.864Z,21.60
2018-08-30T12:19:01.191Z,21.30
2018-08-30T12:21:29.681Z,21.10
2018-08-30T12:23:57.988Z,21.90
2018-08-30T12:26:26.325Z,22.50
2018-08-30T12:28:55.072Z,22.30
2018-08-30T12:31:23.349Z,22.60
2018-08-30T12:33:52.151Z,22.90
2018-08-30T12:36:21.474Z,23.50
2018-08-30T12:38:49.775Z,23.40
2018-08-30T12:41:18.067Z,23.50
2018-08-30T12:43:46.442Z,23.60
2018-08-30T12:46:14.690Z,23.80
2018-08-30T12:48:43.024Z,23.60
2018-08-30T12:51:11.782Z,23.50
2018-08-30T12:53:40.019Z,23.70
2018-08-30T12:56:08.345Z,23.80
2018-08-30T12:58:36.690Z,24.00
2018-08-30T13:01:04.904Z,23.60
2018-08-30T13:03:33.385Z,23.60
2018-08-30T13:06:01.846Z,23.80
2018-08-30T13:08:31.076Z,23.80
2018-08-30T13:10:59.640Z,23.80
2018-08-30T13:13:27.719Z,23.20
2018-08-30T13:15:55.977Z,22.60
2018-08-30T13:18:24.380Z,22.10
2018-08-30T13:20:52.984Z,22.60
2018-08-30T13:23:21.439Z,23.00
2018-08-30T13:25:49.674Z,23.50
2018-08-30T13:28:19.846Z,23.80
2018-08-30T13:30:48.118Z,23.90
2018-08-30T13:33:19.909Z,23.80
2018-08-30T13:35:45.534Z,23.70
2018-08-30T13:38:13.928Z,22.90
2018-08-30T13:40:42.436Z,23.10
2018-08-30T13:43:10.996Z,23.30
2018-08-30T13:45:39.249Z,23.50
2018-08-30T13:48:08.121Z,23.40
2018-08-30T13:50:36.537Z,22.80
2018-08-30T13:53:05.411Z,22.20
2018-08-30T13:55:34.039Z,21.90
2018-08-30T13:58:02.699Z,21.60
2018-08-30T14:00:30.863Z,21.40
2018-08-30T14:02:58.977Z,21.10
2018-08-30T14:05:27.412Z,21.20
2018-08-30T14:07:55.807Z,21.80
2018-08-30T14:10:24.310Z,22.50
2018-08-30T14:12:52.700Z,22.70
2018-08-30T14:15:20.985Z,23.00
2018-08-30T14:17:49.040Z,23.00
2018-08-30T14:20:17.300Z,22.60
2018-08-30T14:22:45.533Z,22.50
2018-08-30T14:25:13.876Z,22.70
2018-08-30T14:27:42.181Z,23.00
2018-08-30T14:30:10.501Z,22.40
2018-08-30T14:32:38.785Z,21.90
2018-08-30T14:35:07.189Z,21.50
2018-08-30T14:37:36.012Z,21.30
2018-08-30T14:40:04.371Z,21.20
2018-08-30T14:42:33.239Z,21.00
2018-08-30T14:45:01.889Z,20.90
2018-08-30T14:47:30.351Z,20.90
2018-08-30T14:49:58.936Z,21.00
2018-08-30T14:52:27.252Z,20.90
2018-08-30T14:54:55.653Z,20.60
2018-08-30T14:57:23.929Z,20.50
2018-08-30T14:59:52.206Z,20.50
2018-08-30T15:02:20.861Z,20.50
2018-08-30T15:04:50.040Z,20.50
2018-08-30T15:07:18.347Z,20.60
2018-08-30T15:09:46.663Z,20.40
2018-08-30T15:12:15.177Z,20.30
2018-08-30T15:14:44.507Z,20.40
2018-08-30T15:17:12.853Z,20.50
2018-08-30T15:19:41.098Z,20.60
2018-08-30T15:22:09.444Z,20.70
2018-08-30T15:24:37.777Z,20.50
2018-08-30T15:27:06.342Z,20.60
2018-08-30T15:29:35.133Z,20.50
2018-08-30T15:32:03.465Z,20.40
2018-08-30T15:34:31.778Z,20.10
2018-08-30T15:37:00.081Z,19.90
2018-08-30T15:39:28.481Z,20.00
2018-08-30T15:41:56.896Z,19.80
2018-08-30T15:44:25.237Z,19.70
2018-08-30T15:46:53.541Z,19.80
2018-08-30T15:49:21.872Z,20.10
2018-08-30T15:51:50.172Z,20.20
2018-08-30T15:54:19.477Z,20.20
2018-08-30T15:56:47.876Z,20.20
2018-08-30T15:59:16.225Z,20.10
2018-08-30T16:01:44.562Z,20.10
2018-08-30T16:04:12.826Z,20.00
2018-08-30T16:06:41.307Z,20.10
2018-08-30T16:09:11.187Z,20.00
2018-08-30T16:11:39.712Z,19.90
2018-08-30T16:14:07.996Z,19.80
2018-08-30T16:16:36.297Z,19.50
2018-08-30T16:19:04.738Z,19.60
2018-08-30T16:21:33.057Z,19.80
2018-08-30T16:24:01.357Z,19.90
2018-08-30T16:26:30.508Z,19.90
2018-08-30T16:28:58.903Z,19.80
2018-08-30T16:31:27.151Z,19.60
2018-08-30T16:33:55.839Z,19.60
2018-08-30T16:36:24.149Z,19.60
2018-08-30T16:38:52.519Z,19.70
2018-08-30T16:41:21.093Z,19.70
2018-08-30T16:43:49.292Z,19.60
2018-08-30T16:46:17.616Z,19.50
2018-08-30T16:48:45.951Z,19.30
2018-08-30T16:51:14.269Z,19.20
2018-08-30T16:53:42.577Z,19.20
2018-08-30T16:56:11.133Z,19.20
2018-08-30T16:58:39.389Z,19.20
2018-08-30T17:01:07.717Z,19.10
2018-08-30T17:03:36.401Z,19.10
2018-08-30T17:06:04.712Z,18.60
2018-08-30T17:08:33.089Z,18.70
2018-08-30T17:11:01.360Z,18.80
2018-08-30T17:13:30.688Z,18.80
2018-08-30T17:15:58.985Z,18.80
2018-08-30T17:18:27.637Z,18.70
2018-08-30T17:20:56.579Z,18.80
2018-08-30T17:23:24.912Z,18.60
2018-08-30T17:25:53.599Z,18.50
2018-08-30T17:28:21.934Z,18.50
2018-08-30T17:30:50.545Z,18.40
2018-08-30T17:33:18.916Z,18.30
2018-08-30T17:35:47.185Z,18.30
2018-08-30T17:38:16.414Z,18.20
2018-08-30T17:40:44.858Z,18.10
2018-08-30T17:43:13.266Z,18.10
2018-08-30T17:45:41.602Z,18.10
2018-08-30T17:48:10.031Z,18.00
2018-08-30T17:50:38.345Z,17.90
2018-08-30T17:53:06.703Z,17.70
2018-08-30T17:55:35.068Z,17.70
2018-08-30T17:58:03.417Z,17.60
2018-08-30T18:00:32.413Z,17.50
2018-08-30T18:03:01.021Z,17.50
2018-08-30T18:05:29.349Z,17.50
2018-08-30T18:07:57.796Z,17.40
2018-08-30T18:10:27.669Z,17.30
2018-08-30T18:12:55.969Z,17.30
2018-08-30T18:15:24.665Z,17.10
2018-08-30T18:17:53.117Z,16.90
2018-08-30T18:20:21.405Z,16.90
2018-08-30T18:22:50.649Z,16.80
2018-08-30T18:25:19.115Z,16.80
2018-08-30T18:27:47.477Z,16.70
2018-08-30T18:30:15.841Z,16.50
2018-08-30T18:32:44.290Z,16.50
2018-08-30T18:35:12.796Z,16.50
2018-08-30T18:37:41.021Z,16.50
2018-08-30T18:40:11.040Z,16.40
2018-08-30T18:42:39.629Z,16.30
2018-08-30T18:45:08.081Z,16.10
2018-08-30T18:47:36.705Z,16.10
2018-08-30T18:50:05.123Z,16.10
2018-08-30T18:52:34.628Z,16.00
2018-08-30T18:55:03.029Z,15.80
2018-08-30T18:57:31.368Z,15.80
2018-08-30T18:59:59.750Z,15.80
2018-08-30T19:02:28.289Z,15.70
2018-08-30T19:04:56.578Z,15.70
2018-08-30T19:07:25.760Z,15.80
2018-08-30T19:09:54.352Z,15.70
2018-08-30T19:12:22.670Z,15.60
2018-08-30T19:14:51.168Z,15.60
2018-08-30T19:17:25.168Z,15.40
2018-08-30T19:19:53.721Z,15.50
2018-08-30T19:22:22.022Z,15.40
2018-08-30T19:24:55.589Z,15.30
2018-08-30T19:27:23.912Z,15.30
2018-08-30T19:29:58.581Z,15.40
2018-08-30T19:32:26.925Z,15.30
2018-08-30T19:34:59.644Z,15.30
2018-08-30T19:37:28.001Z,15.20
2018-08-30T19:39:56.338Z,15.20
2018-08-30T19:42:25.114Z,15.10
2018-08-30T19:44:53.437Z,15.10
2018-08-30T19:47:22.865Z,15.00
2018-08-30T19:49:51.609Z,15.00
2018-08-30T19:52:20.033Z,15.00
2018-08-30T19:54:49.390Z,14.90
2018-08-30T19:57:19.857Z,14.90
2018-08-30T19:59:48.162Z,14.80
2018-08-30T20:02:19.057Z,14.90
2018-08-30T20:04:47.671Z,14.80
2018-08-30T20:07:16.009Z,14.80
2018-08-30T20:09:44.310Z,14.70
2018-08-30T20:12:13.125Z,14.60
2018-08-30T20:14:41.428Z,14.60
2018-08-30T20:17:09.730Z,14.60
2018-08-30T20:19:38.370Z,14.60
2018-08-30T20:22:10.106Z,14.50
2018-08-30T20:24:38.397Z,14.50
2018-08-30T20:27:06.812Z,14.50
2018-08-30T20:29:35.244Z,14.40
2018-08-30T20:32:03.585Z,14.40
2018-08-30T20:34:31.915Z,14.40
2018-08-30T20:37:00.353Z,14.40
2018-08-30T20:39:28.882Z,14.40
2018-08-30T20:41:57.449Z,14.30
2018-08-30T20:44:25.773Z,14.20
2018-08-30T20:46:54.150Z,14.20
2018-08-30T20:49:22.645Z,14.20
2018-08-30T20:51:51.600Z,14.20
2018-08-30T20:54:19.973Z,14.20
2018-08-30T20:56:48.333Z,14.20
2018-08-30T20:59:16.666Z,14.10
2018-08-30T21:01:45.178Z,14.10
2018-08-30T21:04:13.489Z,14.00
2018-08-30T21:06:41.821Z,14.00
2018-08-30T21:09:10.797Z,13.90
2018-08-30T21:11:39.733Z,13.80
2018-08-30T21:14:08.048Z,13.80
2018-08-30T21:16:37.764Z,13.80
2018-08-30T21:19:06.113Z,13.70
2018-08-30T21:21:34.458Z,13.70
2018-08-30T21:24:02.817Z,13.70
2018-08-30T21:26:31.110Z,13.70
2018-08-30T21:28:59.418Z,13.60
2018-08-30T21:31:27.746Z,13.60
2018-08-30T21:33:56.045Z,13.50
2018-08-30T21:36:24.347Z,13.50
2018-08-30T21:38:52.660Z,13.50
2018-08-30T21:41:20.965Z,13.50
2018-08-30T21:43:49.243Z,13.40
2018-08-30T21:46:17.825Z,13.30
2018-08-30T21:48:46.112Z,13.30
2018-08-30T21:51:15.033Z,13.30
2018-08-30T21:53:43.466Z,13.20
2018-08-30T21:56:11.915Z,13.20
2018-08-30T21:58:40.196Z,13.20
2018-08-30T22:01:08.501Z,13.20
2018-08-30T22:03:36.841Z,13.20
2018-08-30T22:06:05.133Z,13.20
2018-08-30T22:08:33.725Z,13.10
2018-08-30T22:11:02.065Z,13.10
2018-08-30T22:13:30.357Z,13.10
2018-08-30T22:15:58.752Z,13.10
2018-08-30T22:18:27.157Z,13.00
2018-08-30T22:20:55.550Z,13.00
2018-08-30T22:23:24.215Z,12.90
2018-08-30T22:25:52.552Z,13.00
2018-08-30T22:28:20.862Z,12.90
2018-08-30T22:30:49.193Z,12.80
2018-08-30T22:33:17.529Z,12.80
2018-08-30T22:35:45.873Z,12.80
2018-08-30T22:38:14.277Z,12.80
2018-08-30T22:40:42.635Z,12.70
2018-08-30T22:43:10.896Z,12.70
2018-08-30T22:45:39.916Z,12.70
2018-08-30T22:48:08.200Z,12.70
2018-08-30T22:50:36.497Z,12.70
2018-08-30T22:53:05.713Z,12.70
2018-08-30T22:55:34.009Z,12.80
2018-08-30T22:58:02.301Z,12.80
2018-08-30T23:00:30.813Z,12.60
2018-08-30T23:02:59.095Z,12.50
2018-08-30T23:05:27.601Z,12.50
2018-08-30T23:07:56.037Z,12.50
2018-08-30T23:10:24.353Z,12.50
2018-08-30T23:12:52.644Z,12.50
2018-08-30T23:15:20.986Z,12.50
2018-08-30T23:17:49.290Z,12.50
2018-08-30T23:20:17.568Z,12.40
2018-08-30T23:22:45.952Z,12.40
2018-08-30T23:25:14.232Z,12.50
2018-08-30T23:27:42.735Z,12.40
2018-08-30T23:30:11.586Z,12.40
2018-08-30T23:32:39.841Z,12.40
2018-08-30T23:35:08.142Z,12.50
2018-08-30T23:37:36.449Z,12.40
2018-08-30T23:40:05.877Z,12.40
2018-08-30T23:42:34.224Z,12.40
2018-08-30T23:45:02.556Z,12.40
2018-08-30T23:47:30.840Z,12.30
2018-08-30T23:49:59.131Z,12.30
2018-08-30T23:52:27.464Z,12.20
2018-08-30T23:54:55.824Z,12.20
2018-08-30T23:57:24.086Z,12.20
